Time;durP1;ratioP1;P1;durP2;ratioP2;P2;SDS_P1;SDS_P2;PMS_P1;PMS_P2;Temp;Humidity;BMP_temperature;BMP_pressure;BME280_temperature;BME280_humidity;BME280_pressure;Samples;Min_cycle;Max_cycle;Signal;HPM_P1;HPM_P2
2023/03/23 00:03:41;;;;;;;0.95;0.40;;;;;;;15.15;46.71;99303.03;10360909;28;20046;-68
2023/03/23 00:08:44;;;;;;;0.98;0.50;;;;;;;15.09;46.94;99289.53;10353163;28;20054;-69
2023/03/23 00:13:47;;;;;;;1.00;0.40;;;;;;;15.10;46.93;99294.69;10377318;28;20709;-69
2023/03/23 00:18:52;;;;;;;0.95;0.55;;;;;;;15.13;47.11;99297.03;10390566;28;20091;-69
2023/03/23 00:23:52;;;;;;;1.17;0.47;;;;;;;15.09;47.42;99293.03;10393514;28;20142;-67
2023/03/23 00:28:52;;;;;;;0.80;0.57;;;;;;;15.09;47.47;99292.19;10396148;28;20049;-69
2023/03/23 00:33:53;;;;;;;1.00;0.53;;;;;;;15.11;47.33;99291.00;10388936;28;20047;-69
2023/03/23 00:38:53;;;;;;;0.93;0.40;;;;;;;15.11;47.35;99288.31;10393843;28;20052;-69
2023/03/23 00:43:56;;;;;;;1.83;0.43;;;;;;;15.11;47.42;99285.63;10381089;28;20045;-69
2023/03/23 00:48:56;;;;;;;1.88;0.57;;;;;;;15.09;47.28;99282.31;10386289;28;20796;-70
2023/03/23 00:53:57;;;;;;;1.77;0.50;;;;;;;15.09;47.60;99274.25;10384318;28;20051;-69
2023/03/23 00:58:57;;;;;;;2.00;0.40;;;;;;;15.04;47.72;99263.22;10390825;28;20041;-69
2023/03/23 01:04:00;;;;;;;1.20;0.60;;;;;;;15.07;47.77;99262.88;10376637;28;20684;-69
2023/03/23 01:09:02;;;;;;;1.17;0.60;;;;;;;15.08;47.94;99269.09;10386654;28;20288;-69
2023/03/23 01:14:04;;;;;;;1.25;0.60;;;;;;;15.07;47.92;99270.91;10385948;28;20775;-69
2023/03/23 01:19:05;;;;;;;1.10;0.40;;;;;;;15.07;48.00;99257.50;10368129;28;20157;-69
2023/03/23 01:24:06;;;;;;;1.43;0.70;;;;;;;15.01;48.35;99261.75;10374601;28;20050;-69
2023/03/23 01:29:07;;;;;;;0.98;0.60;;;;;;;15.00;48.73;99257.38;10380541;28;20729;-69
2023/03/23 01:34:07;;;;;;;2.25;0.80;;;;;;;15.01;48.95;99250.19;10371702;28;20053;-69
2023/03/23 01:39:08;;;;;;;1.50;0.40;;;;;;;15.00;49.12;99259.25;10395594;28;20047;-70
2023/03/23 01:44:17;;;;;;;0.93;0.80;;;;;;;14.98;49.12;99248.72;10393981;28;20516;-69
2023/03/23 01:49:34;;;;;;;1.10;0.73;;;;;;;14.94;49.13;99241.19;10383068;28;20080;-69
2023/03/23 01:54:36;;;;;;;2.30;0.60;;;;;;;14.85;49.43;99233.19;10375071;28;20238;-69
2023/03/23 01:59:37;;;;;;;1.70;0.60;;;;;;;14.96;49.25;99242.66;10376586;28;20056;-69
2023/03/23 02:04:41;;;;;;;1.77;0.43;;;;;;;14.93;49.22;99245.69;10383468;28;20052;-69
2023/03/23 02:09:42;;;;;;;1.23;0.57;;;;;;;14.90;49.08;99239.88;10375676;28;20131;-70
2023/03/23 02:14:42;;;;;;;1.17;0.70;;;;;;;14.89;49.56;99243.56;10381985;28;20094;-69
2023/03/23 02:20:05;;;;;;;1.75;0.40;;;;;;;14.82;49.15;99248.78;10374174;28;20276;-69
2023/03/23 02:25:22;;;;;;;3.22;0.43;;;;;;;14.84;49.17;99247.59;10374836;28;20110;-69
2023/03/23 02:30:45;;;;;;;0.93;0.50;;;;;;;14.87;49.05;99245.59;10377869;28;20037;-69
2023/03/23 02:35:54;;;;;;;1.23;0.52;;;;;;;14.84;49.31;99228.84;10384020;28;22244;-68
2023/03/23 02:41:01;;;;;;;3.50;0.82;;;;;;;14.84;49.92;99230.69;10367405;28;20045;-69
2023/03/23 02:46:06;;;;;;;1.00;0.40;;;;;;;14.84;50.46;99231.50;10362011;28;20045;-69
2023/03/23 02:51:08;;;;;;;0.77;0.30;;;;;;;14.77;53.27;99246.66;10390048;28;20050;-69
2023/03/23 02:56:11;;;;;;;1.85;0.47;;;;;;;14.68;54.85;99231.59;10386966;28;20601;-69
2023/03/23 03:01:32;;;;;;;0.90;0.50;;;;;;;14.59;57.36;99240.66;10383338;28;20128;-70
2023/03/23 03:06:56;;;;;;;1.23;0.60;;;;;;;14.45;57.57;99226.16;10377835;28;20049;-69
2023/03/23 03:12:02;;;;;;;1.27;0.68;;;;;;;14.32;57.94;99221.34;10364191;28;20716;-70
2023/03/23 03:17:11;;;;;;;1.98;0.57;;;;;;;14.29;59.09;99205.63;10394615;28;20072;-69
2023/03/23 03:22:14;;;;;;;0.90;0.50;;;;;;;14.41;59.67;99220.34;10370963;28;20062;-69
2023/03/23 03:27:20;;;;;;;1.47;1.07;;;;;;;14.42;60.00;99205.09;10378482;28;20049;-70
2023/03/23 03:32:24;;;;;;;1.25;0.70;;;;;;;14.41;60.58;99206.94;10375199;28;20068;-69
2023/03/23 03:37:25;;;;;;;1.42;0.88;;;;;;;14.39;60.54;99205.44;10372991;28;20184;-69
2023/03/23 03:42:25;;;;;;;2.33;0.93;;;;;;;14.41;61.21;99206.09;10391332;28;20052;-69
2023/03/23 03:47:26;;;;;;;2.47;0.52;;;;;;;14.38;61.80;99215.31;10379326;28;20962;-69
2023/03/23 03:52:27;;;;;;;2.50;0.70;;;;;;;14.29;62.26;99227.91;10361835;28;20048;-69
2023/03/23 03:57:27;;;;;;;1.85;0.57;;;;;;;14.23;62.33;99222.38;10379856;28;20499;-68
2023/03/23 04:02:27;;;;;;;4.27;1.60;;;;;;;14.17;63.06;99236.47;10369330;28;20049;-69
2023/03/23 04:07:29;;;;;;;1.98;0.80;;;;;;;14.10;62.57;99226.44;10379004;28;20955;-69
2023/03/23 04:12:29;;;;;;;1.20;0.75;;;;;;;14.11;62.56;99230.81;10358166;28;20611;-68
2023/03/23 04:17:30;;;;;;;1.50;0.70;;;;;;;14.05;62.13;99212.75;10393615;28;20053;-69
2023/03/23 04:22:30;;;;;;;1.15;0.70;;;;;;;14.12;62.15;99224.41;10384921;28;20051;-69
2023/03/23 04:27:30;;;;;;;1.27;0.97;;;;;;;14.15;61.68;99228.59;10380993;28;20052;-69
2023/03/23 04:32:31;;;;;;;2.22;1.20;;;;;;;14.15;62.66;99229.44;10380642;28;20293;-69
2023/03/23 04:37:32;;;;;;;2.50;0.90;;;;;;;14.17;62.86;99229.25;10384598;28;20138;-69
2023/03/23 04:42:32;;;;;;;1.75;1.10;;;;;;;14.15;63.18;99237.47;10387476;28;20416;-69
2023/03/23 04:47:39;;;;;;;1.17;0.95;;;;;;;14.11;63.21;99240.66;10383575;28;20154;-68
2023/03/23 04:52:44;;;;;;;1.90;1.00;;;;;;;14.09;64.07;99246.16;10384991;28;20045;-69
2023/03/23 04:57:46;;;;;;;3.05;1.30;;;;;;;14.05;64.28;99246.69;10370221;28;20057;-68
2023/03/23 05:02:51;;;;;;;1.70;1.30;;;;;;;13.97;63.32;99229.63;10381018;28;20048;-69
2023/03/23 05:07:52;;;;;;;2.42;0.93;;;;;;;13.99;63.64;99240.19;10386869;28;20098;-70
2023/03/23 05:12:53;;;;;;;1.85;1.08;;;;;;;13.94;63.19;99237.19;10391579;28;20675;-69
2023/03/23 05:17:55;;;;;;;1.77;1.10;;;;;;;13.92;64.02;99236.53;10372733;28;20076;-69
2023/03/23 05:22:57;;;;;;;2.17;0.90;;;;;;;13.92;63.94;99241.88;10384536;28;20163;-68
2023/03/23 05:27:59;;;;;;;1.70;1.30;;;;;;;13.93;64.30;99243.53;10383952;28;20044;-70
2023/03/23 05:32:59;;;;;;;2.97;0.90;;;;;;;13.93;64.71;99238.19;10388636;28;20057;-70
2023/03/23 05:38:01;;;;;;;3.90;1.13;;;;;;;13.89;65.35;99247.56;10378808;28;20163;-70
2023/03/23 05:43:02;;;;;;;1.92;0.80;;;;;;;13.84;65.03;99239.19;10393333;28;20473;-69
2023/03/23 05:48:05;;;;;;;2.30;0.75;;;;;;;13.82;65.84;99247.41;10388753;28;20134;-69
2023/03/23 05:53:06;;;;;;;1.87;0.80;;;;;;;13.81;66.14;99240.41;10377427;28;20103;-71
2023/03/23 05:58:06;;;;;;;2.93;1.10;;;;;;;13.75;66.63;99241.91;10398250;28;20143;-70
2023/03/23 06:03:07;;;;;;;1.08;0.75;;;;;;;13.70;66.69;99257.59;10416871;28;20049;-71
2023/03/23 06:08:08;;;;;;;2.80;1.05;;;;;;;13.69;67.38;99268.47;10387658;28;20761;-71
2023/03/23 06:13:09;;;;;;;1.55;0.90;;;;;;;13.66;67.56;99277.69;10397015;28;20045;-71
2023/03/23 06:18:09;;;;;;;2.22;1.05;;;;;;;13.68;67.41;99273.00;10375916;28;20049;-71
2023/03/23 06:23:09;;;;;;;2.97;1.23;;;;;;;13.70;68.10;99292.38;10346150;28;20040;-71
2023/03/23 06:28:10;;;;;;;2.67;1.00;;;;;;;13.67;68.48;99283.84;10360950;28;20049;-72
2023/03/23 06:33:12;;;;;;;1.67;1.13;;;;;;;13.69;68.88;99281.84;10357680;28;20288;-71
2023/03/23 06:38:14;;;;;;;2.58;1.27;;;;;;;13.70;69.36;99281.66;10343348;28;20128;-71
2023/03/23 06:43:14;;;;;;;3.30;1.88;;;;;;;13.70;68.96;99286.19;10343512;28;20080;-71
2023/03/23 06:48:15;;;;;;;2.80;1.60;;;;;;;13.78;68.80;99289.69;10365533;28;20103;-70
2023/03/23 06:53:16;;;;;;;2.07;1.40;;;;;;;13.75;69.15;99303.41;10348145;28;20061;-77
2023/03/23 06:58:17;;;;;;;2.40;1.20;;;;;;;13.74;69.82;99303.59;10344946;28;20405;-79
2023/03/23 07:03:18;;;;;;;1.80;1.20;;;;;;;13.83;69.79;99296.41;10352419;28;20055;-75
2023/03/23 07:08:19;;;;;;;2.30;1.03;;;;;;;13.85;69.80;99283.69;10358472;28;20453;-71
2023/03/23 07:13:20;;;;;;;3.10;1.10;;;;;;;13.80;70.44;99289.53;10388140;28;20164;-70
2023/03/23 07:18:20;;;;;;;2.22;1.52;;;;;;;13.76;71.02;99297.03;10380977;28;20060;-72
2023/03/23 07:23:21;;;;;;;3.00;1.35;;;;;;;13.74;72.38;99314.28;10348666;28;20053;-74
2023/03/23 07:28:22;;;;;;;1.63;1.08;;;;;;;13.78;73.22;99316.44;10349482;28;20044;-75
2023/03/23 07:33:23;;;;;;;1.50;1.15;;;;;;;13.80;73.56;99316.28;10388752;28;20537;-73
2023/03/23 07:38:27;;;;;;;3.95;1.52;;;;;;;13.80;73.52;99316.28;10368885;28;20050;-75
2023/03/23 07:43:28;;;;;;;2.20;1.38;;;;;;;13.70;73.69;99319.09;10350938;28;20074;-72
2023/03/23 07:48:28;;;;;;;2.30;1.50;;;;;;;13.72;74.21;99326.97;10356491;28;20067;-76
2023/03/23 07:53:28;;;;;;;3.17;2.15;;;;;;;13.72;74.99;99321.63;10369482;28;20057;-72
2023/03/23 07:58:29;;;;;;;2.97;1.02;;;;;;;13.71;75.42;99326.13;10356457;28;20064;-72
2023/03/23 08:03:31;;;;;;;2.90;1.03;;;;;;;13.70;75.51;99334.31;10374642;28;20048;-74
2023/03/23 08:08:32;;;;;;;2.17;1.35;;;;;;;13.65;74.84;99342.84;10395477;28;20356;-72
2023/03/23 08:13:34;;;;;;;4.05;1.60;;;;;;;13.54;75.13;99346.69;10364382;28;20045;-70
2023/03/23 08:18:36;;;;;;;1.85;1.15;;;;;;;13.57;75.27;99353.53;10397055;28;20048;-70
2023/03/23 08:23:37;;;;;;;2.33;1.40;;;;;;;13.61;74.67;99357.53;10394837;28;20155;-71
2023/03/23 08:28:38;;;;;;;2.97;1.33;;;;;;;13.60;74.56;99354.03;10393499;28;20053;-72
2023/03/23 08:33:42;;;;;;;1.90;1.38;;;;;;;13.51;74.46;99356.84;10401631;28;21176;-72
2023/03/23 08:38:44;;;;;;;2.67;1.50;;;;;;;13.55;74.85;99363.56;10402242;28;20110;-72
2023/03/23 08:43:46;;;;;;;2.08;1.13;;;;;;;13.63;74.22;99365.41;10380662;28;20041;-70
2023/03/23 08:48:48;;;;;;;1.67;1.20;;;;;;;13.66;74.01;99391.81;10372333;28;20067;-70
2023/03/23 08:53:50;;;;;;;1.65;1.23;;;;;;;13.68;73.96;99379.97;10391140;28;20504;-71
2023/03/23 08:58:50;;;;;;;2.50;1.27;;;;;;;13.60;74.06;99367.41;10380902;28;20113;-72
2023/03/23 09:03:51;;;;;;;1.48;1.35;;;;;;;13.69;73.47;99381.63;10398702;28;20128;-75
2023/03/23 09:08:53;;;;;;;3.05;1.25;;;;;;;13.73;73.98;99366.09;10393685;28;20052;-71
2023/03/23 09:13:53;;;;;;;2.63;1.50;;;;;;;13.81;73.67;99365.25;10392312;28;20056;-72
2023/03/23 09:18:56;;;;;;;2.78;1.15;;;;;;;13.91;72.96;99363.25;10389380;28;20049;-74
2023/03/23 09:23:58;;;;;;;1.58;1.17;;;;;;;14.04;74.91;99366.28;10385146;28;20048;-57
2023/03/23 09:28:58;;;;;;;2.65;0.98;;;;;;;14.18;71.61;99369.28;10387333;28;20053;-73
2023/03/23 09:34:00;;;;;;;1.80;1.25;;;;;;;14.29;70.81;99375.13;10376712;28;20044;-73
2023/03/23 09:39:01;;;;;;;1.08;0.90;;;;;;;14.59;69.51;99370.06;10390309;28;20124;-70
2023/03/23 09:44:15;;;;;;;2.30;1.27;;;;;;;14.96;67.63;99378.50;10349651;28;20063;-72
2023/03/23 09:49:41;;;;;;;1.63;1.27;;;;;;;15.39;65.41;99395.06;10373446;28;20101;-71
2023/03/23 09:54:47;;;;;;;1.38;0.98;;;;;;;15.84;62.31;99396.16;10369656;28;20060;-74
2023/03/23 10:00:01;;;;;;;2.35;0.75;;;;;;;16.05;61.07;99392.81;10381228;28;20330;-71
2023/03/23 10:05:20;;;;;;;1.58;1.20;;;;;;;16.19;60.59;99383.13;10382001;28;20045;-72
2023/03/23 10:10:52;;;;;;;1.40;1.15;;;;;;;16.03;63.19;99407.41;10341567;28;20053;-71
2023/03/23 10:15:54;;;;;;;2.40;1.05;;;;;;;15.52;66.13;99395.34;10267321;28;20545;-71
2023/03/23 10:21:00;;;;;;;1.05;0.95;;;;;;;15.32;67.51;99418.22;10318162;28;20057;-70
2023/03/23 10:26:31;;;;;;;1.00;0.90;;;;;;;15.02;69.45;99409.97;10344818;28;20041;-69
2023/03/23 10:31:39;;;;;;;2.28;1.02;;;;;;;15.04;69.32;99424.03;10311762;28;20576;-72
2023/03/23 10:36:57;;;;;;;1.20;0.70;;;;;;;14.88;67.89;99429.44;10350483;28;20105;-73
2023/03/23 10:42:06;;;;;;;1.38;0.82;;;;;;;14.87;67.17;99438.50;10341943;28;20052;-73
2023/03/23 10:47:08;;;;;;;1.15;0.90;;;;;;;14.88;66.98;99421.38;10338057;28;20421;-71
2023/03/23 10:52:30;;;;;;;2.10;0.82;;;;;;;15.03;67.42;99423.19;10340310;28;20049;-72
2023/03/23 10:57:33;;;;;;;1.13;0.80;;;;;;;15.05;67.33;99420.34;10340680;28;20049;-71
2023/03/23 11:02:47;;;;;;;1.85;0.77;;;;;;;14.94;65.92;99418.03;10343217;28;20064;-71
2023/03/23 11:08:12;;;;;;;2.97;1.10;;;;;;;14.94;65.63;99423.41;10333720;28;20140;-71
2023/03/23 11:13:15;;;;;;;7.72;6.70;;;;;;;14.77;67.18;99420.78;10372896;28;20045;-73
2023/03/23 11:18:42;;;;;;;1.45;0.80;;;;;;;14.82;68.34;99422.94;10379442;28;20497;-72
2023/03/23 11:23:50;;;;;;;2.75;1.67;;;;;;;14.61;68.40;99423.47;10384286;28;20048;-72
2023/03/23 11:28:56;;;;;;;1.83;1.40;;;;;;;14.74;67.74;99436.34;10358617;28;20057;-72
2023/03/23 11:34:01;;;;;;;1.98;0.77;;;;;;;14.98;66.49;99419.34;10366932;28;20079;-72
2023/03/23 11:39:04;;;;;;;1.42;0.93;;;;;;;15.57;64.24;99424.31;10357756;28;20037;-71
2023/03/23 11:44:12;;;;;;;1.73;0.60;;;;;;;17.39;56.63;99418.16;10392836;28;20944;-71
2023/03/23 11:49:40;;;;;;;1.02;0.52;;;;;;;17.11;57.18;99410.75;10401158;28;20747;-70
2023/03/23 11:54:52;;;;;;;0.98;0.70;;;;;;;15.97;61.12;99416.19;10375911;28;20508;-72
2023/03/23 11:59:52;;;;;;;2.17;0.50;;;;;;;15.65;62.58;99431.47;10391593;28;20076;-72
2023/03/23 12:05:29;;;;;;;3.10;0.70;;;;;;;15.65;62.43;99416.19;10402394;28;20052;-75
2023/03/23 12:10:35;;;;;;;1.38;0.47;;;;;;;19.00;53.30;99393.50;10385965;28;20068;-74
2023/03/23 12:15:51;;;;;;;5.82;5.28;;;;;;;18.31;52.48;99395.09;10377449;28;20079;-72
2023/03/23 12:21:21;;;;;;;0.88;0.68;;;;;;;16.69;57.88;99410.34;10380340;28;20059;-72
2023/03/23 12:26:29;;;;;;;1.05;0.50;;;;;;;16.32;60.43;99395.09;10391543;28;20159;-69
2023/03/23 12:31:49;;;;;;;2.83;0.52;;;;;;;16.36;61.14;99397.25;10385364;28;20849;-72
2023/03/23 12:37:18;;;;;;;0.88;0.60;;;;;;;16.75;59.04;99366.63;10388350;28;20060;-74
2023/03/23 12:42:58;;;;;;;0.75;0.50;;;;;;;16.96;58.52;99355.16;10380165;28;20131;-71
2023/03/23 12:48:04;;;;;;;1.00;0.57;;;;;;;17.88;55.23;99352.00;10198834;28;20058;-71
2023/03/23 12:53:23;;;;;;;1.00;0.55;;;;;;;17.57;55.33;99356.69;10347265;28;20140;-72
2023/03/23 12:58:32;;;;;;;1.30;0.50;;;;;;;16.85;57.39;99360.97;10396841;28;20069;-73
2023/03/23 13:03:57;;;;;;;0.95;0.45;;;;;;;16.81;57.56;99356.97;10386661;28;20098;-75
2023/03/23 13:09:10;;;;;;;0.82;0.50;;;;;;;16.69;57.71;99364.66;10394065;28;20052;-71
2023/03/23 13:14:26;;;;;;;1.20;0.40;;;;;;;16.79;56.83;99375.16;10361730;28;20040;-75
2023/03/23 13:19:41;;;;;;;1.13;0.55;;;;;;;17.40;55.44;99350.72;10379448;28;20103;-71
2023/03/23 13:25:15;;;;;;;0.70;0.30;;;;;;;17.56;54.07;99354.19;10373589;28;20500;-72
2023/03/23 13:30:21;;;;;;;1.40;0.43;;;;;;;18.55;51.62;99340.78;10396341;28;20083;-73
2023/03/23 13:35:23;;;;;;;1.40;0.50;;;;;;;20.18;47.63;99341.09;10386538;28;20097;-73
2023/03/23 13:40:28;;;;;;;0.60;0.40;;;;;;;21.25;45.12;99346.25;10395907;28;20056;-70
2023/03/23 13:45:29;;;;;;;2.13;1.40;;;;;;;19.79;47.66;99354.38;10385173;28;20060;-70
2023/03/23 13:50:31;;;;;;;0.73;0.47;;;;;;;18.75;50.82;99355.38;10377822;28;20061;-76
2023/03/23 13:55:42;;;;;;;1.30;0.47;;;;;;;17.79;53.07;99354.00;10367414;28;20106;-72
2023/03/23 14:00:47;;;;;;;11.38;1.42;;;;;;;17.31;55.32;99352.69;10386961;28;21448;-72
2023/03/23 14:06:12;;;;;;;1.70;0.40;;;;;;;16.74;56.79;99346.16;10360940;28;20876;-74
2023/03/23 14:11:22;;;;;;;1.23;0.60;;;;;;;16.30;58.38;99356.84;10434460;28;20049;-69
2023/03/23 14:16:26;;;;;;;1.63;0.70;;;;;;;16.00;60.40;99354.09;10385373;28;20156;-72
2023/03/23 14:21:40;;;;;;;1.75;0.50;;;;;;;15.85;61.06;99371.00;10394139;28;20087;-71
2023/03/23 14:26:42;;;;;;;1.23;0.50;;;;;;;15.83;61.22;99370.34;10391432;28;20156;-73
2023/03/23 14:31:48;;;;;;;1.85;0.50;;;;;;;15.92;60.90;99363.06;10358049;28;20059;-76
2023/03/23 14:36:49;;;;;;;1.60;0.55;;;;;;;15.97;60.23;99349.91;10390148;28;20087;-73
2023/03/23 14:41:51;;;;;;;2.13;0.80;;;;;;;15.99;60.51;99350.59;10372839;28;20052;-54
2023/03/23 14:46:55;;;;;;;2.03;0.93;;;;;;;15.72;61.89;99368.88;10378064;28;20106;-76
2023/03/23 14:51:55;;;;;;;2.83;0.80;;;;;;;15.59;62.96;99357.06;10377770;28;20265;-74
2023/03/23 14:56:56;;;;;;;0.60;0.30;;;;;;;15.60;63.09;99358.72;10384203;28;20287;-71
2023/03/23 15:01:56;;;;;;;1.50;0.60;;;;;;;15.63;63.07;99353.84;10383834;28;20139;-73
2023/03/23 15:07:04;;;;;;;1.80;0.65;;;;;;;15.81;61.80;99353.59;10353634;28;20052;-73
2023/03/23 15:12:24;;;;;;;1.23;0.60;;;;;;;15.85;60.75;99341.50;10398395;28;20060;-74
2023/03/23 15:17:28;;;;;;;1.92;0.63;;;;;;;15.73;60.94;99338.34;10376550;28;20132;-70
2023/03/23 15:22:31;;;;;;;1.27;0.68;;;;;;;15.63;60.73;99353.03;10313566;28;20071;-71
2023/03/23 15:27:43;;;;;;;1.13;0.57;;;;;;;15.60;60.50;99354.22;10361854;28;20531;-73
2023/03/23 15:32:45;;;;;;;1.73;0.50;;;;;;;15.61;60.02;99338.94;10378244;28;20053;-71
2023/03/23 15:37:57;;;;;;;2.20;0.50;;;;;;;15.62;59.75;99346.00;10374216;28;20139;-70
2023/03/23 15:43:19;;;;;;;4.82;0.90;;;;;;;15.66;59.90;99347.31;10364727;28;20448;-72
2023/03/23 15:48:20;;;;;;;0.77;0.30;;;;;;;15.82;60.51;99341.84;10370944;28;20057;-72
2023/03/23 15:53:36;;;;;;;3.50;0.68;;;;;;;15.84;61.35;99350.53;10344737;28;20763;-70
2023/03/23 15:58:39;;;;;;;0.95;0.50;;;;;;;15.78;62.64;99355.78;10360824;28;20420;-70
2023/03/23 16:03:54;;;;;;;1.42;0.40;;;;;;;15.63;63.13;99363.75;10352498;28;20197;-72
2023/03/23 16:08:56;;;;;;;1.02;0.55;;;;;;;15.59;64.04;99352.53;10354266;28;20048;-72
2023/03/23 16:13:59;;;;;;;1.10;0.60;;;;;;;15.56;64.16;99361.75;10390254;28;20138;-73
2023/03/23 16:19:02;;;;;;;1.35;0.60;;;;;;;15.51;64.91;99361.47;10387963;28;20057;-73
2023/03/23 16:24:04;;;;;;;1.38;0.80;;;;;;;15.40;66.10;99367.22;10386318;28;20062;-73
2023/03/23 16:29:11;;;;;;;1.25;0.70;;;;;;;15.33;66.82;99363.59;10365566;28;20042;-73
2023/03/23 16:34:32;;;;;;;1.48;1.05;;;;;;;15.26;68.59;99357.25;10381293;28;20139;-74
2023/03/23 16:39:34;;;;;;;1.38;0.80;;;;;;;15.11;69.88;99360.69;10390990;28;20114;-71
2023/03/23 16:44:36;;;;;;;2.05;0.70;;;;;;;14.88;70.95;99355.25;10387057;28;20056;-72
2023/03/23 16:49:37;;;;;;;1.88;0.70;;;;;;;14.95;70.64;99360.75;10385743;28;20061;-69
2023/03/23 16:54:38;;;;;;;1.63;1.00;;;;;;;14.83;72.18;99355.78;10387593;28;20192;-71
2023/03/23 16:59:40;;;;;;;2.55;0.98;;;;;;;14.73;72.35;99357.00;10392983;28;20057;-70
2023/03/23 17:04:44;;;;;;;1.38;0.98;;;;;;;14.77;72.55;99363.66;10386820;28;20260;-71
2023/03/23 17:09:45;;;;;;;1.90;1.07;;;;;;;14.66;72.41;99348.78;10384847;28;21584;-71
2023/03/23 17:14:47;;;;;;;1.88;1.35;;;;;;;14.71;72.25;99354.47;10364539;28;20501;-71
2023/03/23 17:19:49;;;;;;;2.15;1.00;;;;;;;14.63;72.89;99341.09;10388689;28;20052;-71
2023/03/23 17:24:51;;;;;;;1.58;1.20;;;;;;;14.57;72.95;99344.44;10389920;28;20051;-71
2023/03/23 17:29:53;;;;;;;1.95;0.95;;;;;;;14.56;72.41;99345.44;10386557;28;20210;-71
2023/03/23 17:34:54;;;;;;;1.17;0.95;;;;;;;14.57;71.82;99341.75;10390587;28;20053;-71
2023/03/23 17:39:56;;;;;;;1.05;0.93;;;;;;;14.55;71.32;99338.44;10387889;28;20777;-71
2023/03/23 17:44:59;;;;;;;1.90;1.48;;;;;;;14.50;70.57;99337.09;10393149;28;20053;-70
2023/03/23 17:50:02;;;;;;;1.95;1.05;;;;;;;14.50;70.67;99346.94;10388646;28;20052;-70
2023/03/23 17:55:12;;;;;;;2.70;1.30;;;;;;;14.45;70.51;99354.69;10365794;28;20200;-71
2023/03/23 18:00:16;;;;;;;1.70;0.95;;;;;;;14.44;70.20;99364.56;10396520;28;20466;-71
2023/03/23 18:05:18;;;;;;;1.48;1.00;;;;;;;14.43;70.22;99370.09;10385725;28;20064;-71
2023/03/23 18:10:19;;;;;;;17.70;16.10;;;;;;;14.45;70.08;99370.75;10392048;28;20062;-72
2023/03/23 18:15:21;;;;;;;3.58;1.60;;;;;;;14.43;70.10;99367.41;10377595;28;20184;-71
2023/03/23 18:20:30;;;;;;;4.45;3.60;;;;;;;14.42;70.19;99369.22;10394211;28;20595;-71
2023/03/23 18:25:32;;;;;;;8.20;7.53;;;;;;;14.45;70.33;99368.88;10379126;28;20057;-54
2023/03/23 18:30:36;;;;;;;3.85;3.38;;;;;;;14.49;70.54;99364.88;10388357;28;20049;-71
2023/03/23 18:35:38;;;;;;;4.47;2.40;;;;;;;14.52;70.00;99360.16;10386224;28;20068;-74
2023/03/23 18:40:42;;;;;;;10.52;9.73;;;;;;;14.47;69.86;99356.19;10377001;28;20500;-74
2023/03/23 18:45:52;;;;;;;1.52;1.42;;;;;;;14.44;70.07;99356.53;10344884;28;20624;-72
2023/03/23 18:50:57;;;;;;;1.65;1.13;;;;;;;14.41;70.03;99354.19;10393381;28;20056;-71
2023/03/23 18:56:05;;;;;;;2.17;1.05;;;;;;;14.35;70.31;99354.03;10376539;28;20048;-74
2023/03/23 19:01:10;;;;;;;2.03;1.50;;;;;;;14.35;69.99;99364.72;10394697;28;20045;-72
2023/03/23 19:06:24;;;;;;;2.40;2.03;;;;;;;14.38;70.15;99370.59;10390485;28;20153;-72
2023/03/23 19:11:26;;;;;;;2.67;1.40;;;;;;;14.37;70.28;99374.28;10374165;28;20177;-73
2023/03/23 19:16:29;;;;;;;2.08;1.58;;;;;;;14.39;70.19;99360.72;10394212;28;20060;-70
2023/03/23 19:21:31;;;;;;;1.50;1.27;;;;;;;14.40;70.29;99363.22;10389436;28;20094;-70
2023/03/23 19:26:36;;;;;;;2.25;1.50;;;;;;;14.46;70.14;99356.34;10389707;28;20115;-71
2023/03/23 19:31:38;;;;;;;3.10;2.13;;;;;;;14.45;70.28;99350.16;10386432;28;20067;-72
2023/03/23 19:36:40;;;;;;;15.65;14.15;;;;;;;14.52;70.23;99355.69;10392324;28;20057;-72
2023/03/23 19:41:43;;;;;;;6.65;5.88;;;;;;;14.48;70.35;99343.63;10379405;28;20048;-71
2023/03/23 19:46:47;;;;;;;8.73;7.93;;;;;;;14.45;71.02;99330.59;10390109;28;20123;-72
2023/03/23 19:51:54;;;;;;;17.97;16.77;;;;;;;14.47;72.26;99333.91;10406560;28;20819;-72
2023/03/23 19:57:10;;;;;;;5.18;4.78;;;;;;;14.47;72.67;99324.06;10382408;28;20579;-73
2023/03/23 20:02:12;;;;;;;6.65;5.60;;;;;;;14.44;73.46;99321.72;10386244;28;20068;-71
2023/03/23 20:07:14;;;;;;;7.22;6.53;;;;;;;14.42;74.32;99318.38;10409234;28;20505;-56
2023/03/23 20:12:16;;;;;;;10.60;9.73;;;;;;;14.42;73.94;99313.00;10390402;28;20049;-55
2023/03/23 20:17:18;;;;;;;4.20;2.95;;;;;;;14.40;74.11;99309.69;10390199;28;20545;-55
2023/03/23 20:22:19;;;;;;;3.33;2.53;;;;;;;14.50;74.08;99304.97;10391041;28;20187;-56
2023/03/23 20:27:21;;;;;;;3.83;3.47;;;;;;;14.47;74.05;99302.63;10388235;28;20052;-55
2023/03/23 20:32:22;;;;;;;2.88;1.80;;;;;;;14.54;74.18;99300.09;10389203;28;20418;-55
2023/03/23 20:37:24;;;;;;;2.65;1.70;;;;;;;14.55;74.41;99300.94;10390913;28;20049;-56
2023/03/23 20:42:28;;;;;;;2.75;2.15;;;;;;;14.55;74.10;99284.88;10390192;28;20462;-55
2023/03/23 20:47:30;;;;;;;1.80;1.43;;;;;;;14.53;74.15;99273.50;10384224;28;20510;-71
2023/03/23 20:52:31;;;;;;;2.65;1.17;;;;;;;14.57;74.35;99272.13;10385889;28;20624;-71
2023/03/23 20:57:36;;;;;;;4.65;2.10;;;;;;;14.50;74.65;99270.16;10383518;28;20076;-71
2023/03/23 21:02:41;;;;;;;2.40;1.98;;;;;;;14.43;75.67;99271.03;10390854;28;20049;-71
2023/03/23 21:07:42;;;;;;;2.67;1.90;;;;;;;14.36;76.49;99254.81;10385266;28;20052;-72
2023/03/23 21:12:44;;;;;;;2.58;1.83;;;;;;;14.33;77.04;99255.16;10389509;28;20051;-71
2023/03/23 21:17:46;;;;;;;1.63;1.52;;;;;;;14.38;77.13;99252.81;10383400;28;20049;-70
2023/03/23 21:22:48;;;;;;;2.95;2.55;;;;;;;14.37;76.94;99251.13;10388893;28;20103;-71
2023/03/23 21:27:53;;;;;;;3.08;2.22;;;;;;;14.36;77.31;99240.59;10379454;28;20200;-71
2023/03/23 21:32:55;;;;;;;3.60;2.63;;;;;;;14.35;77.17;99226.34;10395757;28;20599;-71
2023/03/23 21:37:57;;;;;;;4.68;2.60;;;;;;;14.33;76.84;99226.53;10391129;28;20060;-71
2023/03/23 21:42:59;;;;;;;3.00;2.13;;;;;;;14.32;76.53;99221.34;10383765;28;20135;-71
2023/03/23 21:48:01;;;;;;;2.67;2.47;;;;;;;14.25;75.97;99209.69;10389080;28;20127;-71
2023/03/23 21:53:04;;;;;;;2.97;2.67;;;;;;;14.28;75.17;99209.34;10380194;28;20229;-71
2023/03/23 21:58:08;;;;;;;3.75;2.65;;;;;;;14.27;74.07;99202.31;10381779;28;20655;-71
2023/03/23 22:03:10;;;;;;;2.67;2.47;;;;;;;14.28;73.32;99203.97;10377760;28;20098;-72
2023/03/23 22:08:12;;;;;;;4.25;2.78;;;;;;;14.30;72.34;99193.94;10349376;28;20052;-71
2023/03/23 22:13:16;;;;;;;3.72;2.75;;;;;;;14.31;72.21;99196.44;10388977;28;20700;-72
2023/03/23 22:18:19;;;;;;;5.88;3.13;;;;;;;14.32;71.79;99191.91;10383166;28;20052;-71
2023/03/23 22:23:21;;;;;;;3.63;2.55;;;;;;;14.32;71.42;99178.50;10377403;28;20225;-71
2023/03/23 22:28:30;;;;;;;5.25;2.35;;;;;;;14.32;71.32;99184.72;10398181;28;20060;-71
2023/03/23 22:33:32;;;;;;;5.95;2.97;;;;;;;14.29;71.09;99184.22;10387450;28;20072;-71
2023/03/23 22:38:36;;;;;;;3.95;2.30;;;;;;;14.31;70.69;99183.03;10402237;28;20614;-71
2023/03/23 22:43:38;;;;;;;4.32;3.15;;;;;;;14.33;70.70;99180.19;10387825;28;20296;-71
2023/03/23 22:48:40;;;;;;;4.13;2.35;;;;;;;14.31;70.36;99182.22;10385759;28;20111;-71
2023/03/23 22:53:44;;;;;;;2.80;2.47;;;;;;;14.30;70.84;99180.53;10386222;28;20053;-70
2023/03/23 22:58:50;;;;;;;3.00;2.70;;;;;;;14.33;71.18;99177.50;10375884;28;20594;-71
2023/03/23 23:03:52;;;;;;;2.65;2.38;;;;;;;14.30;71.88;99165.31;10386280;28;20068;-71
2023/03/23 23:08:54;;;;;;;4.43;3.05;;;;;;;14.29;72.94;99142.25;10383090;28;20049;-72
2023/03/23 23:13:57;;;;;;;4.18;3.03;;;;;;;14.26;73.38;99152.44;10377256;28;20694;-71
2023/03/23 23:18:59;;;;;;;4.55;2.75;;;;;;;14.18;74.92;99150.66;10399108;28;20417;-72
2023/03/23 23:24:00;;;;;;;5.82;3.28;;;;;;;14.17;76.06;99148.97;10360793;28;20083;-70
2023/03/23 23:29:03;;;;;;;2.92;2.70;;;;;;;14.17;76.78;99150.81;10372307;28;20060;-71
2023/03/23 23:34:05;;;;;;;3.53;2.83;;;;;;;14.09;78.59;99160.53;10335548;28;20046;-71
2023/03/23 23:39:07;;;;;;;3.90;3.10;;;;;;;13.99;80.05;99135.84;10341707;28;20072;-75